createdAt,value
2022-11-12T00:01:28.260Z,10.50
2022-11-12T00:03:57.472Z,10.50
2022-11-12T00:06:24.545Z,10.50
2022-11-12T00:08:51.717Z,10.40
2022-11-12T00:11:19.329Z,9.60
2022-11-12T00:13:55.977Z,10.40
2022-11-12T00:16:23.020Z,10.40
2022-11-12T00:18:50.213Z,10.50
2022-11-12T00:21:17.393Z,10.40
2022-11-12T00:23:44.429Z,9.60
2022-11-12T00:26:17.288Z,10.40
2022-11-12T00:28:44.364Z,9.40
2022-11-12T00:31:12.318Z,10.40
2022-11-12T00:33:42.067Z,10.40
2022-11-12T00:36:10.224Z,10.30
2022-11-12T00:38:37.415Z,10.40
2022-11-12T00:41:04.702Z,10.40
2022-11-12T00:43:31.799Z,10.40
2022-11-12T00:45:58.811Z,10.40
2022-11-12T00:48:26.167Z,10.30
2022-11-12T00:51:00.517Z,10.50
2022-11-12T00:53:27.695Z,10.40
2022-11-12T00:55:59.754Z,10.40
2022-11-12T00:58:29.253Z,10.50
2022-11-12T01:00:56.665Z,10.50
2022-11-12T01:03:23.791Z,10.50
2022-11-12T01:05:51.003Z,10.40
2022-11-12T01:08:17.995Z,9.20
2022-11-12T01:10:45.078Z,10.30
2022-11-12T01:13:12.139Z,9.00
2022-11-12T01:15:43.010Z,10.40
2022-11-12T01:18:10.031Z,10.40
2022-11-12T01:20:39.379Z,10.40
2022-11-12T01:23:06.853Z,10.50
2022-11-12T01:25:33.926Z,10.40
2022-11-12T01:28:00.957Z,9.60
2022-11-12T01:30:27.996Z,10.40
2022-11-12T01:32:55.067Z,10.40
2022-11-12T01:35:22.134Z,10.40
2022-11-12T01:37:49.145Z,10.40
2022-11-12T01:40:16.919Z,10.40
2022-11-12T01:42:44.000Z,10.40
2022-11-12T01:45:18.354Z,10.40
2022-11-12T01:47:47.776Z,10.40
2022-11-12T01:50:34.896Z,10.40
2022-11-12T01:53:09.767Z,10.40
2022-11-12T01:55:38.107Z,10.40
2022-11-12T01:58:12.521Z,9.00
2022-11-12T02:00:40.820Z,10.40
2022-11-12T02:03:15.369Z,10.40
2022-11-12T02:05:43.300Z,10.40
2022-11-12T02:08:13.035Z,10.30
2022-11-12T02:10:40.825Z,10.50
2022-11-12T02:13:28.707Z,10.50
2022-11-12T02:15:56.330Z,10.40
2022-11-12T02:18:23.456Z,10.50
2022-11-12T02:20:57.253Z,10.40
2022-11-12T02:23:24.540Z,10.50
2022-11-12T02:25:51.591Z,10.50
2022-11-12T02:28:18.687Z,10.40
2022-11-12T02:30:49.250Z,10.40
2022-11-12T02:33:16.262Z,10.50
2022-11-12T02:35:43.261Z,10.50
2022-11-12T02:38:10.550Z,10.50
2022-11-12T02:40:37.684Z,10.50
2022-11-12T02:43:04.733Z,10.60
2022-11-12T02:45:34.729Z,10.60
2022-11-12T02:48:02.311Z,10.60
2022-11-12T02:50:29.329Z,10.60
2022-11-12T02:52:56.269Z,10.60
2022-11-12T02:55:23.315Z,10.60
2022-11-12T02:57:50.341Z,10.60
2022-11-12T03:00:18.604Z,10.60
2022-11-12T03:02:59.160Z,10.60
2022-11-12T03:05:28.220Z,10.60
2022-11-12T03:08:04.043Z,10.60
2022-11-12T03:10:31.931Z,9.70
2022-11-12T03:13:01.061Z,10.60
2022-11-12T03:15:29.521Z,10.60
2022-11-12T03:17:58.635Z,10.60
2022-11-12T03:20:26.446Z,10.60
2022-11-12T03:23:03.343Z,10.60
2022-11-12T03:25:30.918Z,9.60
2022-11-12T03:28:08.424Z,10.60
2022-11-12T03:30:37.796Z,10.60
2022-11-12T03:33:06.575Z,10.60
2022-11-12T03:35:34.328Z,10.60
2022-11-12T03:38:02.760Z,10.70
2022-11-12T03:40:33.131Z,10.70
2022-11-12T03:43:02.815Z,10.60
2022-11-12T03:45:31.429Z,10.70
2022-11-12T03:47:59.314Z,10.70
2022-11-12T03:50:28.668Z,10.70
2022-11-12T03:52:57.953Z,10.70
2022-11-12T03:55:26.987Z,10.60
2022-11-12T03:57:54.903Z,10.60
2022-11-12T04:00:23.686Z,10.60
2022-11-12T04:02:51.553Z,10.70
2022-11-12T04:05:38.688Z,10.60
2022-11-12T04:08:30.495Z,10.60
2022-11-12T04:10:57.501Z,10.70
2022-11-12T04:13:27.845Z,10.70
2022-11-12T04:16:34.070Z,10.70
2022-11-12T04:19:22.223Z,10.70
2022-11-12T04:22:10.310Z,10.60
2022-11-12T04:24:59.955Z,10.70
2022-11-12T04:27:30.808Z,10.70
2022-11-12T04:30:18.082Z,10.70
2022-11-12T04:32:50.553Z,10.70
2022-11-12T04:35:19.276Z,10.60
2022-11-12T04:37:46.520Z,10.60
2022-11-12T04:40:37.685Z,10.70
2022-11-12T04:43:27.079Z,9.90
2022-11-12T04:45:55.035Z,10.70
2022-11-12T04:48:23.415Z,10.80
2022-11-12T04:50:54.710Z,10.70
2022-11-12T04:53:21.850Z,10.80
2022-11-12T04:55:51.134Z,10.80
2022-11-12T04:58:18.296Z,10.80
2022-11-12T05:00:45.317Z,10.70
2022-11-12T05:03:12.458Z,10.70
2022-11-12T05:05:39.600Z,10.80
2022-11-12T05:08:06.670Z,10.80
2022-11-12T05:10:33.949Z,10.80
2022-11-12T05:13:01.292Z,10.80
2022-11-12T05:15:28.263Z,9.80
2022-11-12T05:17:55.251Z,10.80
2022-11-12T05:20:22.276Z,10.80
2022-11-12T05:23:05.083Z,10.80
2022-11-12T05:25:33.131Z,10.90
2022-11-12T05:28:00.171Z,10.80
2022-11-12T05:30:27.256Z,10.80
2022-11-12T05:32:54.389Z,10.80
2022-11-12T05:35:21.480Z,10.80
2022-11-12T05:37:48.480Z,10.80
2022-11-12T05:40:15.657Z,10.80
2022-11-12T05:42:42.673Z,9.90
2022-11-12T05:45:10.145Z,10.70
2022-11-12T05:47:37.161Z,10.70
2022-11-12T05:50:04.513Z,10.80
2022-11-12T05:52:31.574Z,10.80
2022-11-12T05:54:58.631Z,10.80
2022-11-12T05:57:28.021Z,10.90
2022-11-12T05:59:55.023Z,10.90
2022-11-12T06:02:22.283Z,11.00
2022-11-12T06:04:49.338Z,10.80
2022-11-12T06:07:16.405Z,10.80
2022-11-12T06:09:43.428Z,10.80
2022-11-12T06:12:10.456Z,10.80
2022-11-12T06:14:37.871Z,10.90
2022-11-12T06:17:04.869Z,10.90
2022-11-12T06:19:31.958Z,10.80
2022-11-12T06:22:01.551Z,10.30
2022-11-12T06:24:35.156Z,10.90
2022-11-12T06:27:02.592Z,10.80
2022-11-12T06:29:30.322Z,10.20
2022-11-12T06:31:57.457Z,10.90
2022-11-12T06:34:26.882Z,10.90
2022-11-12T06:36:54.340Z,10.30
2022-11-12T06:39:21.381Z,11.00
2022-11-12T06:41:48.421Z,10.10
2022-11-12T06:44:20.802Z,11.10
2022-11-12T06:46:49.163Z,11.10
2022-11-12T06:49:16.157Z,11.20
2022-11-12T06:51:43.278Z,11.20
2022-11-12T06:54:10.363Z,11.20
2022-11-12T06:56:37.395Z,11.30
2022-11-12T06:59:04.398Z,11.20
2022-11-12T07:01:31.512Z,11.20
2022-11-12T07:03:58.701Z,11.10
2022-11-12T07:06:26.331Z,11.30
2022-11-12T07:08:53.456Z,11.30
2022-11-12T07:11:20.900Z,11.20
2022-11-12T07:13:48.519Z,11.40
2022-11-12T07:16:18.715Z,11.40
2022-11-12T07:18:47.704Z,11.40
2022-11-12T07:21:18.025Z,11.50
2022-11-12T07:23:46.559Z,11.40
2022-11-12T07:26:20.578Z,11.40
2022-11-12T07:28:48.506Z,11.50
2022-11-12T07:31:17.498Z,11.60
2022-11-12T07:33:45.188Z,11.50
2022-11-12T07:36:15.151Z,11.60
2022-11-12T07:38:43.525Z,11.60
2022-11-12T07:41:33.102Z,10.00
2022-11-12T07:44:00.132Z,11.50
2022-11-12T07:46:28.660Z,11.60
2022-11-12T07:48:56.395Z,11.60
2022-11-12T07:51:25.787Z,11.60
2022-11-12T07:53:59.546Z,11.70
2022-11-12T07:56:27.652Z,11.60
2022-11-12T07:58:54.949Z,11.70
2022-11-12T08:01:42.003Z,11.70
2022-11-12T08:04:10.732Z,11.20
2022-11-12T08:06:38.260Z,11.70
2022-11-12T08:09:07.812Z,11.70
2022-11-12T08:11:35.224Z,11.80
2022-11-12T08:14:03.071Z,11.80
2022-11-12T08:16:30.205Z,11.80
2022-11-12T08:18:57.209Z,11.70
2022-11-12T08:21:24.250Z,11.70
2022-11-12T08:23:51.262Z,11.80
2022-11-12T08:26:19.914Z,11.80
2022-11-12T08:28:47.066Z,11.80
2022-11-12T08:31:16.795Z,11.90
2022-11-12T08:33:43.997Z,10.60
2022-11-12T08:36:13.028Z,11.80
2022-11-12T08:38:40.496Z,11.80
2022-11-12T08:41:10.236Z,11.80
2022-11-12T08:43:37.497Z,11.80
2022-11-12T08:46:06.772Z,10.50
2022-11-12T08:48:34.622Z,11.80
2022-11-12T08:51:03.307Z,10.30
2022-11-12T08:53:30.582Z,11.70
2022-11-12T08:55:57.803Z,11.80
2022-11-12T08:58:26.630Z,11.80
2022-11-12T09:00:55.203Z,11.90
2022-11-12T09:03:24.625Z,10.50
2022-11-12T09:05:52.962Z,11.80
2022-11-12T09:08:22.932Z,11.90
2022-11-12T09:10:51.324Z,11.90
2022-11-12T09:13:18.715Z,11.90
2022-11-12T09:15:46.687Z,11.20
2022-11-12T09:18:16.492Z,11.90
2022-11-12T09:20:43.865Z,11.90
2022-11-12T09:23:13.201Z,11.90
2022-11-12T09:25:41.495Z,11.30
2022-11-12T09:28:10.253Z,11.90
2022-11-12T09:30:38.512Z,12.00
2022-11-12T09:33:08.731Z,11.50
2022-11-12T09:35:35.814Z,11.90
2022-11-12T09:38:02.855Z,12.00
2022-11-12T09:41:09.573Z,11.90
2022-11-12T09:43:44.717Z,11.90
2022-11-12T09:46:41.035Z,10.60
2022-11-12T09:49:31.434Z,11.90
2022-11-12T09:52:30.913Z,11.40
2022-11-12T09:55:10.183Z,11.90
2022-11-12T09:57:37.553Z,11.90
2022-11-12T10:00:30.040Z,11.90
2022-11-12T10:03:14.614Z,11.90
2022-11-12T10:06:10.074Z,11.90
2022-11-12T10:08:48.606Z,11.80
2022-11-12T10:12:15.211Z,11.00
2022-11-12T10:15:41.849Z,11.90
2022-11-12T10:18:31.732Z,11.90
2022-11-12T10:21:23.398Z,11.90
2022-11-12T10:23:55.689Z,11.80
2022-11-12T10:26:25.751Z,11.80
2022-11-12T10:29:03.473Z,11.80
2022-11-12T10:31:30.519Z,11.80
2022-11-12T10:34:16.438Z,11.80
2022-11-12T10:37:07.830Z,11.90
2022-11-12T10:39:47.577Z,11.90
2022-11-12T10:42:19.330Z,11.90
2022-11-12T10:44:49.846Z,12.00
2022-11-12T10:47:42.208Z,11.90
2022-11-12T10:50:36.553Z,11.90
2022-11-12T10:53:06.717Z,11.90
2022-11-12T10:55:36.948Z,12.00
2022-11-12T10:58:27.162Z,12.00
2022-11-12T11:01:18.724Z,12.00
2022-11-12T11:03:52.945Z,11.90
2022-11-12T11:06:25.961Z,12.00
2022-11-12T11:08:54.898Z,12.00
2022-11-12T11:11:50.924Z,11.90
2022-11-12T11:14:40.186Z,11.90
2022-11-12T11:17:16.879Z,13.20
2022-11-12T11:19:44.153Z,11.90
2022-11-12T11:22:50.063Z,11.90
2022-11-12T11:25:28.978Z,11.90
2022-11-12T11:28:17.397Z,11.80
2022-11-12T11:31:24.118Z,11.90
2022-11-12T11:34:23.038Z,11.80
2022-11-12T11:37:29.783Z,11.80
2022-11-12T11:40:36.612Z,11.80
2022-11-12T11:43:30.081Z,11.80
2022-11-12T11:46:22.857Z,11.80
2022-11-12T11:49:29.562Z,11.90
2022-11-12T11:52:22.793Z,11.90
2022-11-12T11:55:29.578Z,11.80
2022-11-12T11:58:23.874Z,11.60
2022-11-12T12:01:17.123Z,11.90
2022-11-12T12:04:23.891Z,11.80
2022-11-12T12:07:30.598Z,11.90
2022-11-12T12:10:17.197Z,11.90
2022-11-12T12:13:24.953Z,11.90
2022-11-12T12:16:21.009Z,12.00
2022-11-12T12:19:07.703Z,11.90
2022-11-12T12:21:36.444Z,11.90
2022-11-12T12:24:31.082Z,11.90
2022-11-12T12:27:21.108Z,12.00
2022-11-12T12:29:53.847Z,12.00
2022-11-12T12:32:47.691Z,11.90
2022-11-12T12:35:38.660Z,11.90
2022-11-12T12:38:32.144Z,12.00
2022-11-12T12:41:27.955Z,12.00
2022-11-12T12:43:59.548Z,12.00
2022-11-12T12:46:31.319Z,12.00
2022-11-12T12:49:00.755Z,12.00
2022-11-12T12:51:31.271Z,12.00
2022-11-12T12:53:59.366Z,12.00
2022-11-12T12:56:47.273Z,12.00
2022-11-12T12:59:23.790Z,12.00
2022-11-12T13:01:58.056Z,12.00
2022-11-12T13:05:04.808Z,11.60
2022-11-12T13:07:44.273Z,12.00
2022-11-12T13:10:48.524Z,12.00
2022-11-12T13:13:36.337Z,12.00
2022-11-12T13:16:03.767Z,12.00
2022-11-12T13:19:10.676Z,11.90
2022-11-12T13:21:37.750Z,10.90
2022-11-12T13:24:11.259Z,11.90
2022-11-12T13:26:57.081Z,11.90
2022-11-12T13:29:39.341Z,11.90
2022-11-12T13:32:47.518Z,11.90
2022-11-12T13:35:35.115Z,10.40
2022-11-12T13:38:22.051Z,11.90
2022-11-12T13:41:16.704Z,11.90
2022-11-12T13:43:47.503Z,11.90
2022-11-12T13:46:33.327Z,11.90
2022-11-12T13:49:20.590Z,11.90
2022-11-12T13:51:52.465Z,11.90
2022-11-12T13:54:37.019Z,11.90
2022-11-12T13:57:43.768Z,11.90
2022-11-12T14:00:30.838Z,11.90
2022-11-12T14:03:04.384Z,12.00
2022-11-12T14:05:34.159Z,11.90
2022-11-12T14:08:40.984Z,12.00
2022-11-12T14:11:47.891Z,11.90
2022-11-12T14:14:54.756Z,11.60
2022-11-12T14:18:01.578Z,11.90
2022-11-12T14:20:40.518Z,11.90
2022-11-12T14:23:24.152Z,11.90
2022-11-12T14:25:55.010Z,11.90
2022-11-12T14:28:39.761Z,12.00
2022-11-12T14:31:13.653Z,12.00
2022-11-12T14:33:40.789Z,12.00
2022-11-12T14:36:14.003Z,11.90
2022-11-12T14:38:48.137Z,12.00
2022-11-12T14:41:37.427Z,11.90
2022-11-12T14:44:13.820Z,12.00
2022-11-12T14:47:01.643Z,11.90
2022-11-12T14:49:52.992Z,11.90
2022-11-12T14:52:24.991Z,12.00
2022-11-12T14:54:56.868Z,12.00
2022-11-12T14:57:28.017Z,12.00
2022-11-12T14:59:55.950Z,12.00
2022-11-12T15:02:51.205Z,12.00
2022-11-12T15:05:21.334Z,10.90
2022-11-12T15:08:10.289Z,12.00
2022-11-12T15:10:59.975Z,12.00
2022-11-12T15:13:27.904Z,12.00
2022-11-12T15:16:08.762Z,11.90
2022-11-12T15:18:38.341Z,12.00
2022-11-12T15:21:27.709Z,12.30
2022-11-12T15:24:34.503Z,12.10
2022-11-12T15:27:22.336Z,12.00
2022-11-12T15:29:49.408Z,12.10
2022-11-12T15:32:34.218Z,12.10
2022-11-12T15:35:02.291Z,12.10
2022-11-12T15:37:35.353Z,12.10
2022-11-12T15:40:12.809Z,12.10
2022-11-12T15:42:42.193Z,12.20
2022-11-12T15:45:21.913Z,12.20
2022-11-12T15:47:49.070Z,12.20
2022-11-12T15:50:20.187Z,12.20
2022-11-12T15:52:47.240Z,12.20
2022-11-12T15:55:15.157Z,12.20
2022-11-12T15:57:52.368Z,12.80
2022-11-12T16:00:22.559Z,12.20
2022-11-12T16:02:56.403Z,12.20
2022-11-12T16:05:23.428Z,12.30
2022-11-12T16:07:50.440Z,12.30
2022-11-12T16:10:18.882Z,12.30
2022-11-12T16:12:48.173Z,12.30
2022-11-12T16:15:18.536Z,12.20
2022-11-12T16:17:46.398Z,12.20
2022-11-12T16:20:34.517Z,12.20
2022-11-12T16:23:02.027Z,12.20
2022-11-12T16:25:32.000Z,12.30
2022-11-12T16:27:59.236Z,11.20
2022-11-12T16:30:29.717Z,12.30
2022-11-12T16:32:58.114Z,12.30
2022-11-12T16:35:26.102Z,12.20
2022-11-12T16:37:57.878Z,12.30
2022-11-12T16:40:27.856Z,12.30
2022-11-12T16:42:55.088Z,11.10
2022-11-12T16:45:24.438Z,12.20
2022-11-12T16:47:54.669Z,12.20
2022-11-12T16:50:23.930Z,12.20
2022-11-12T16:52:51.951Z,12.20
2022-11-12T16:55:19.466Z,12.20
2022-11-12T16:57:46.882Z,12.10
2022-11-12T17:00:16.429Z,12.10
2022-11-12T17:02:48.208Z,12.10
2022-11-12T17:05:26.012Z,12.10
2022-11-12T17:07:57.405Z,12.10
2022-11-12T17:10:25.467Z,12.10
2022-11-12T17:12:53.068Z,12.10
2022-11-12T17:15:20.505Z,12.10
2022-11-12T17:17:47.528Z,12.10
2022-11-12T17:20:14.641Z,12.00
2022-11-12T17:22:41.740Z,12.10
2022-11-12T17:25:09.455Z,12.00
2022-11-12T17:27:36.775Z,12.00
2022-11-12T17:30:04.889Z,12.00
2022-11-12T17:32:32.532Z,12.00
2022-11-12T17:34:59.598Z,12.00
2022-11-12T17:37:26.685Z,12.00
2022-11-12T17:39:53.900Z,12.00
2022-11-12T17:42:20.893Z,11.90
2022-11-12T17:44:48.093Z,12.00
2022-11-12T17:47:15.154Z,11.90
2022-11-12T17:49:42.557Z,11.90
2022-11-12T17:52:09.619Z,11.90
2022-11-12T17:54:36.763Z,11.90
2022-11-12T17:57:04.515Z,11.90
2022-11-12T17:59:31.626Z,11.90
2022-11-12T18:01:58.763Z,11.80
2022-11-12T18:04:29.859Z,11.80
2022-11-12T18:06:58.241Z,11.80
2022-11-12T18:09:25.378Z,11.80
2022-11-12T18:11:56.510Z,11.80
2022-11-12T18:14:24.764Z,11.80
2022-11-12T18:16:51.972Z,11.70
2022-11-12T18:19:19.213Z,11.80
2022-11-12T18:21:46.294Z,11.80
2022-11-12T18:24:15.495Z,11.80
2022-11-12T18:26:44.379Z,11.80
2022-11-12T18:29:12.803Z,11.80
2022-11-12T18:31:40.864Z,11.80
2022-11-12T18:34:10.566Z,11.80
2022-11-12T18:36:37.709Z,11.80
2022-11-12T18:39:05.174Z,11.80
2022-11-12T18:41:33.908Z,11.80
2022-11-12T18:44:01.764Z,11.70
2022-11-12T18:46:29.153Z,11.80
2022-11-12T18:48:56.375Z,11.70
2022-11-12T18:51:23.556Z,11.80
2022-11-12T18:53:50.677Z,11.50
2022-11-12T18:56:20.349Z,11.80
2022-11-12T18:58:47.906Z,11.80
2022-11-12T19:01:17.711Z,10.60
2022-11-12T19:03:44.976Z,11.80
2022-11-12T19:06:14.132Z,11.80
2022-11-12T19:08:41.773Z,11.80
2022-11-12T19:11:12.989Z,11.80
2022-11-12T19:13:41.139Z,11.80
2022-11-12T19:16:13.662Z,11.80
2022-11-12T19:18:42.299Z,11.80
2022-11-12T19:21:14.041Z,11.80
2022-11-12T19:23:43.141Z,11.80
2022-11-12T19:26:13.670Z,11.80
2022-11-12T19:28:41.524Z,11.90
2022-11-12T19:31:14.161Z,11.80
2022-11-12T19:33:42.015Z,11.80
2022-11-12T19:36:13.373Z,11.20
2022-11-12T19:38:41.439Z,11.80
2022-11-12T19:41:16.147Z,11.80
2022-11-12T19:43:46.028Z,11.80
2022-11-12T19:46:13.832Z,11.80
2022-11-12T19:48:40.982Z,11.80
2022-11-12T19:51:09.974Z,11.80
2022-11-12T19:53:41.131Z,11.70
2022-11-12T19:56:08.678Z,11.70
2022-11-12T19:58:35.936Z,11.80
2022-11-12T20:01:12.841Z,11.70
2022-11-12T20:03:58.399Z,11.60
2022-11-12T20:06:27.339Z,11.80
2022-11-12T20:08:54.560Z,11.80
2022-11-12T20:11:21.776Z,11.80
2022-11-12T20:13:52.435Z,11.80
2022-11-12T20:16:25.316Z,11.80
2022-11-12T20:18:55.653Z,11.80
2022-11-12T20:21:24.516Z,11.80
2022-11-12T20:23:51.567Z,11.80
2022-11-12T20:26:19.001Z,11.90
2022-11-12T20:28:46.586Z,11.80
2022-11-12T20:31:17.065Z,11.80
2022-11-12T20:33:44.092Z,11.90
2022-11-12T20:36:14.646Z,11.80
2022-11-12T20:38:43.947Z,11.80
2022-11-12T20:41:16.080Z,11.70
2022-11-12T20:43:43.209Z,11.70
2022-11-12T20:46:12.519Z,11.70
2022-11-12T20:48:43.297Z,11.70
2022-11-12T20:51:30.726Z,11.70
2022-11-12T20:54:00.553Z,11.70
2022-11-12T20:56:32.737Z,11.70
2022-11-12T20:59:00.275Z,11.70
2022-11-12T21:01:29.749Z,11.60
2022-11-12T21:03:58.398Z,11.60
2022-11-12T21:06:27.662Z,11.50
2022-11-12T21:08:54.897Z,11.60
2022-11-12T21:11:22.905Z,11.70
2022-11-12T21:13:50.271Z,11.70
2022-11-12T21:16:17.637Z,11.60
2022-11-12T21:18:44.759Z,11.60
2022-11-12T21:21:14.592Z,11.60
2022-11-12T21:23:43.773Z,11.60
2022-11-12T21:26:13.816Z,11.60
2022-11-12T21:28:45.912Z,11.60
2022-11-12T21:31:17.564Z,11.60
2022-11-12T21:33:44.722Z,11.60
2022-11-12T21:36:16.078Z,11.00
2022-11-12T21:38:44.216Z,11.60
2022-11-12T21:41:13.786Z,11.60
2022-11-12T21:43:43.479Z,11.60
2022-11-12T21:46:28.998Z,11.60
2022-11-12T21:48:57.177Z,11.60
2022-11-12T21:51:26.965Z,11.60
2022-11-12T21:53:57.953Z,11.60
2022-11-12T21:56:26.106Z,11.60
2022-11-12T21:58:59.481Z,11.60
2022-11-12T22:01:29.136Z,11.60
2022-11-12T22:03:57.228Z,11.60
2022-11-12T22:06:27.185Z,11.60
2022-11-12T22:08:55.887Z,11.60
2022-11-12T22:11:23.824Z,11.60
2022-11-12T22:13:51.059Z,11.60
2022-11-12T22:16:20.661Z,11.60
2022-11-12T22:18:49.936Z,11.60
2022-11-12T22:21:20.034Z,11.50
2022-11-12T22:23:47.236Z,11.60
2022-11-12T22:26:16.969Z,11.60
2022-11-12T22:28:44.163Z,11.60
2022-11-12T22:31:15.074Z,11.60
2022-11-12T22:33:42.764Z,11.50
2022-11-12T22:36:15.737Z,11.50
2022-11-12T22:38:45.517Z,11.50
2022-11-12T22:41:15.768Z,11.50
2022-11-12T22:43:46.564Z,11.10
2022-11-12T22:46:16.793Z,11.50
2022-11-12T22:48:44.904Z,11.60
2022-11-12T22:51:18.933Z,11.50
2022-11-12T22:53:46.413Z,11.50
2022-11-12T22:56:17.522Z,11.50
2022-11-12T22:58:46.928Z,11.40
2022-11-12T23:01:25.557Z,11.50
2022-11-12T23:03:55.894Z,11.60
2022-11-12T23:06:23.328Z,11.50
2022-11-12T23:08:50.802Z,11.50
2022-11-12T23:11:19.544Z,11.50
2022-11-12T23:13:47.199Z,11.60
2022-11-12T23:16:18.640Z,11.50
2022-11-12T23:18:45.831Z,11.50
2022-11-12T23:21:17.042Z,11.70
2022-11-12T23:23:44.567Z,11.50
2022-11-12T23:26:16.466Z,11.50
2022-11-12T23:28:43.948Z,11.50
2022-11-12T23:31:14.920Z,11.50
2022-11-12T23:33:52.726Z,11.50
2022-11-12T23:36:21.213Z,11.50
2022-11-12T23:38:48.613Z,11.50
2022-11-12T23:41:18.961Z,11.50
2022-11-12T23:43:46.525Z,11.60
2022-11-12T23:46:13.762Z,11.50
2022-11-12T23:48:41.273Z,11.60
2022-11-12T23:51:11.536Z,11.60
2022-11-12T23:53:39.717Z,11.60
2022-11-12T23:56:09.978Z,11.50
2022-11-12T23:58:38.567Z,11.40
